createdAt,value
2023-11-06T00:01:51.797Z,9.01
2023-11-06T00:04:23.468Z,9.10
2023-11-06T00:06:53.397Z,9.22
2023-11-06T00:09:24.967Z,9.21
2023-11-06T00:11:55.013Z,9.28
2023-11-06T00:14:25.192Z,8.47
2023-11-06T00:16:55.365Z,9.00
2023-11-06T00:19:25.169Z,8.88
2023-11-06T00:21:55.139Z,8.99
2023-11-06T00:24:26.708Z,8.99
2023-11-06T00:26:57.002Z,8.87
2023-11-06T00:29:26.539Z,9.15
2023-11-06T00:31:56.560Z,8.99
2023-11-06T00:34:26.422Z,8.95
2023-11-06T00:36:56.570Z,9.01
2023-11-06T00:39:27.418Z,9.08
2023-11-06T00:41:59.934Z,9.00
2023-11-06T00:44:29.781Z,9.00
2023-11-06T00:46:59.610Z,8.88
2023-11-06T00:49:29.760Z,8.67
2023-11-06T00:51:59.496Z,9.07
2023-11-06T00:54:30.335Z,9.11
2023-11-06T00:57:01.803Z,9.21
2023-11-06T00:59:31.514Z,9.14
2023-11-06T01:02:01.268Z,9.22
2023-11-06T01:04:30.968Z,9.30
2023-11-06T01:07:00.972Z,9.14
2023-11-06T01:09:33.889Z,9.22
2023-11-06T01:12:03.851Z,9.19
2023-11-06T01:14:33.415Z,9.15
2023-11-06T01:17:02.857Z,9.28
2023-11-06T01:19:35.019Z,9.16
2023-11-06T01:22:06.478Z,9.07
2023-11-06T01:24:38.237Z,9.08
2023-11-06T01:27:08.677Z,8.90
2023-11-06T01:29:40.921Z,8.93
2023-11-06T01:32:10.682Z,8.75
2023-11-06T01:34:40.376Z,8.78
2023-11-06T01:37:10.226Z,9.05
2023-11-06T01:39:41.588Z,9.11
2023-11-06T01:42:14.503Z,8.96
2023-11-06T01:44:44.153Z,9.00
2023-11-06T01:47:18.003Z,8.98
2023-11-06T01:49:48.187Z,9.07
2023-11-06T01:52:21.587Z,8.81
2023-11-06T01:54:52.527Z,9.02
2023-11-06T01:57:22.318Z,9.00
2023-11-06T01:59:52.260Z,8.91
2023-11-06T02:02:25.163Z,8.86
2023-11-06T02:04:56.060Z,8.86
2023-11-06T02:07:26.264Z,8.88
2023-11-06T02:09:59.535Z,8.76
2023-11-06T02:12:29.045Z,8.84
2023-11-06T02:14:58.854Z,8.77
2023-11-06T02:17:28.600Z,8.72
2023-11-06T02:19:58.218Z,9.00
2023-11-06T02:22:28.079Z,8.69
2023-11-06T02:25:05.001Z,8.75
2023-11-06T02:27:38.731Z,8.83
2023-11-06T02:30:09.527Z,8.81
2023-11-06T02:32:39.278Z,8.30
2023-11-06T02:35:09.925Z,8.90
2023-11-06T02:37:39.725Z,8.96
2023-11-06T02:40:13.921Z,8.98
2023-11-06T02:42:43.153Z,8.93
2023-11-06T02:45:12.014Z,8.99
2023-11-06T02:47:41.107Z,8.91
2023-11-06T02:50:12.630Z,8.88
2023-11-06T02:52:45.510Z,8.86
2023-11-06T02:55:15.781Z,8.49
2023-11-06T02:57:47.406Z,8.88
2023-11-06T03:00:17.050Z,8.86
2023-11-06T03:02:46.022Z,8.90
2023-11-06T03:05:16.335Z,9.02
2023-11-06T03:07:45.302Z,8.86
2023-11-06T03:10:15.976Z,8.37
2023-11-06T03:12:47.084Z,8.88
2023-11-06T03:15:16.631Z,8.70
2023-11-06T03:17:45.812Z,8.74
2023-11-06T03:20:15.510Z,8.98
2023-11-06T03:22:44.979Z,8.81
2023-11-06T03:25:15.848Z,8.21
2023-11-06T03:27:45.074Z,8.82
2023-11-06T03:30:15.377Z,8.74
2023-11-06T03:32:44.627Z,8.83
2023-11-06T03:35:14.033Z,8.86
2023-11-06T03:37:47.460Z,8.71
2023-11-06T03:40:18.678Z,8.93
2023-11-06T03:42:49.145Z,8.78
2023-11-06T03:45:18.344Z,8.77
2023-11-06T03:47:47.759Z,8.79
2023-11-06T03:50:17.218Z,8.83
2023-11-06T03:52:46.716Z,8.59
2023-11-06T03:55:17.811Z,8.89
2023-11-06T03:57:47.159Z,9.01
2023-11-06T04:00:17.390Z,8.81
2023-11-06T04:02:47.019Z,8.77
2023-11-06T04:05:17.147Z,8.79
2023-11-06T04:07:46.894Z,8.54
2023-11-06T04:10:17.990Z,8.58
2023-11-06T04:12:47.475Z,8.69
2023-11-06T04:15:16.954Z,8.57
2023-11-06T04:17:46.804Z,8.73
2023-11-06T04:20:16.749Z,8.63
2023-11-06T04:22:46.107Z,8.54
2023-11-06T04:25:18.906Z,8.59
2023-11-06T04:27:48.578Z,8.50
2023-11-06T04:30:17.721Z,8.60
2023-11-06T04:32:47.358Z,8.56
2023-11-06T04:35:17.467Z,8.46
2023-11-06T04:37:47.511Z,8.84
2023-11-06T04:40:16.970Z,8.69
2023-11-06T04:42:48.817Z,8.74
2023-11-06T04:45:19.043Z,8.70
2023-11-06T04:47:49.221Z,8.74
2023-11-06T04:50:33.651Z,8.65
2023-11-06T04:53:06.591Z,8.48
2023-11-06T04:55:35.918Z,7.98
2023-11-06T04:58:06.917Z,8.57
2023-11-06T05:00:36.223Z,8.53
2023-11-06T05:03:05.602Z,8.65
2023-11-06T05:05:35.388Z,8.20
2023-11-06T05:08:05.074Z,8.54
2023-11-06T05:10:34.348Z,8.35
2023-11-06T05:13:04.065Z,8.49
2023-11-06T05:15:37.883Z,8.56
2023-11-06T05:18:07.615Z,8.34
2023-11-06T05:20:37.287Z,8.45
2023-11-06T05:23:07.243Z,8.35
2023-11-06T05:25:37.119Z,8.50
2023-11-06T05:28:06.718Z,8.07
2023-11-06T05:30:37.191Z,8.19
2023-11-06T05:33:06.952Z,8.26
2023-11-06T05:35:37.272Z,8.14
2023-11-06T05:38:06.541Z,8.23
2023-11-06T05:40:38.450Z,8.23
2023-11-06T05:43:07.583Z,8.18
2023-11-06T05:45:37.806Z,8.22
2023-11-06T05:48:07.025Z,8.37
2023-11-06T05:50:37.456Z,8.57
2023-11-06T05:53:07.402Z,8.55
2023-11-06T05:55:37.549Z,8.26
2023-11-06T05:58:06.985Z,8.37
2023-11-06T06:00:37.609Z,8.22
2023-11-06T06:03:07.119Z,8.33
2023-11-06T06:05:36.686Z,8.43
2023-11-06T06:08:12.713Z,8.38
2023-11-06T06:10:47.375Z,8.41
2023-11-06T06:13:16.910Z,7.93
2023-11-06T06:15:48.300Z,8.09
2023-11-06T06:18:18.327Z,8.23
2023-11-06T06:20:48.157Z,8.31
2023-11-06T06:23:18.171Z,8.22
2023-11-06T06:25:47.529Z,8.39
2023-11-06T06:28:16.964Z,8.25
2023-11-06T06:30:47.477Z,8.31
2023-11-06T06:33:16.512Z,8.31
2023-11-06T06:35:45.331Z,8.27
2023-11-06T06:38:14.941Z,8.35
2023-11-06T06:40:44.309Z,8.28
2023-11-06T06:43:13.203Z,8.25
2023-11-06T06:45:42.216Z,8.18
2023-11-06T06:48:12.797Z,8.07
2023-11-06T06:50:45.093Z,8.26
2023-11-06T06:53:14.974Z,8.34
2023-11-06T06:55:44.331Z,7.57
2023-11-06T06:58:15.974Z,8.28
2023-11-06T07:00:45.076Z,8.23
2023-11-06T07:03:15.687Z,8.46
2023-11-06T07:05:48.826Z,8.36
2023-11-06T07:08:18.115Z,8.45
2023-11-06T07:10:47.598Z,8.29
2023-11-06T07:13:16.708Z,8.37
2023-11-06T07:15:45.651Z,8.27
2023-11-06T07:18:16.173Z,8.27
2023-11-06T07:20:45.377Z,8.28
2023-11-06T07:23:14.661Z,8.11
2023-11-06T07:25:46.862Z,8.38
2023-11-06T07:28:17.622Z,8.38
2023-11-06T07:30:47.011Z,8.52
2023-11-06T07:33:18.011Z,8.41
2023-11-06T07:35:56.442Z,8.65
2023-11-06T07:38:25.438Z,8.55
2023-11-06T07:40:54.333Z,8.45
2023-11-06T07:43:23.560Z,8.26
2023-11-06T07:45:52.826Z,8.37
2023-11-06T07:48:23.362Z,8.19
2023-11-06T07:50:52.581Z,8.51
2023-11-06T07:53:21.819Z,8.44
2023-11-06T07:55:50.859Z,7.94
2023-11-06T07:58:19.820Z,8.59
2023-11-06T08:00:50.904Z,8.35
2023-11-06T08:03:22.660Z,8.44
2023-11-06T08:05:52.328Z,8.63
2023-11-06T08:08:22.131Z,8.49
2023-11-06T08:10:51.211Z,8.51
2023-11-06T08:13:20.373Z,8.58
2023-11-06T08:15:49.765Z,8.58
2023-11-06T08:18:19.085Z,8.70
2023-11-06T08:20:49.946Z,8.82
2023-11-06T08:23:19.442Z,8.76
2023-11-06T08:25:48.532Z,8.74
2023-11-06T08:28:17.405Z,8.81
2023-11-06T08:30:46.708Z,8.76
2023-11-06T08:33:15.829Z,8.85
2023-11-06T08:35:44.743Z,8.79
2023-11-06T08:38:17.663Z,8.85
2023-11-06T08:40:48.653Z,8.87
2023-11-06T08:43:20.160Z,8.95
2023-11-06T08:45:49.552Z,8.95
2023-11-06T08:48:19.354Z,9.09
2023-11-06T08:50:50.673Z,9.05
2023-11-06T08:53:21.447Z,9.21
2023-11-06T08:55:50.826Z,8.69
2023-11-06T08:58:20.397Z,9.12
2023-11-06T09:00:49.761Z,9.14
2023-11-06T09:03:19.226Z,9.20
2023-11-06T09:05:48.170Z,9.29
2023-11-06T09:08:17.433Z,9.45
2023-11-06T09:10:47.709Z,9.46
2023-11-06T09:13:17.575Z,9.41
2023-11-06T09:15:47.770Z,9.32
2023-11-06T09:18:20.699Z,9.44
2023-11-06T09:20:50.266Z,9.46
2023-11-06T09:23:22.576Z,9.32
2023-11-06T09:25:53.482Z,9.41
2023-11-06T09:28:22.416Z,9.49
2023-11-06T09:30:52.657Z,9.31
2023-11-06T09:33:22.019Z,9.66
2023-11-06T09:35:51.200Z,9.64
2023-11-06T09:38:20.191Z,9.82
2023-11-06T09:40:49.345Z,9.89
2023-11-06T09:43:20.117Z,10.14
2023-11-06T09:45:49.995Z,10.16
2023-11-06T09:48:21.353Z,10.30
2023-11-06T09:50:51.721Z,10.51
2023-11-06T09:53:24.339Z,10.41
2023-11-06T09:55:55.417Z,10.40
2023-11-06T09:58:26.113Z,10.43
2023-11-06T10:00:55.756Z,10.23
2023-11-06T10:03:27.971Z,10.53
2023-11-06T10:05:59.079Z,10.47
2023-11-06T10:08:32.562Z,10.37
2023-11-06T10:11:03.140Z,10.25
2023-11-06T10:13:34.308Z,10.39
2023-11-06T10:16:18.703Z,10.32
2023-11-06T10:18:47.945Z,10.38
2023-11-06T10:21:29.200Z,10.29
2023-11-06T10:24:01.804Z,10.42
2023-11-06T10:26:34.303Z,10.53
2023-11-06T10:29:12.590Z,10.67
2023-11-06T10:31:42.706Z,10.51
2023-11-06T10:34:27.337Z,10.52
2023-11-06T10:37:08.213Z,10.42
2023-11-06T10:39:37.348Z,10.54
2023-11-06T10:42:07.868Z,10.00
2023-11-06T10:44:39.743Z,10.35
2023-11-06T10:47:10.671Z,10.51
2023-11-06T10:49:45.391Z,10.39
2023-11-06T10:52:14.936Z,10.31
2023-11-06T10:54:44.536Z,10.07
2023-11-06T10:57:17.507Z,10.28
2023-11-06T10:59:52.456Z,10.15
2023-11-06T11:02:38.716Z,10.39
2023-11-06T11:05:12.880Z,10.24
2023-11-06T11:07:42.414Z,10.19
2023-11-06T11:10:13.679Z,9.98
2023-11-06T11:12:43.259Z,9.92
2023-11-06T11:15:14.752Z,9.97
2023-11-06T11:17:58.493Z,9.88
2023-11-06T11:20:28.048Z,9.98
2023-11-06T11:23:08.063Z,9.97
2023-11-06T11:25:56.139Z,9.45
2023-11-06T11:28:29.189Z,9.89
2023-11-06T11:31:37.606Z,9.91
2023-11-06T11:34:15.662Z,10.05
2023-11-06T11:36:53.848Z,9.92
2023-11-06T11:39:23.691Z,9.75
2023-11-06T11:42:25.370Z,9.95
2023-11-06T11:44:59.341Z,9.91
2023-11-06T11:47:56.980Z,10.14
2023-11-06T11:50:43.941Z,10.20
2023-11-06T11:53:34.220Z,9.96
2023-11-06T11:56:03.849Z,10.00
2023-11-06T11:58:44.533Z,10.16
2023-11-06T12:01:13.837Z,9.86
2023-11-06T12:03:44.333Z,9.94
2023-11-06T12:06:13.820Z,9.52
2023-11-06T12:08:42.819Z,9.94
2023-11-06T12:11:12.887Z,10.27
2023-11-06T12:13:41.993Z,10.31
2023-11-06T12:16:13.638Z,10.31
2023-11-06T12:18:46.222Z,10.31
2023-11-06T12:21:17.019Z,10.37
2023-11-06T12:23:48.697Z,10.62
2023-11-06T12:26:18.593Z,10.59
2023-11-06T12:28:50.144Z,10.50
2023-11-06T12:31:21.831Z,10.45
2023-11-06T12:33:52.273Z,10.32
2023-11-06T12:36:27.894Z,10.38
2023-11-06T12:38:56.968Z,10.26
2023-11-06T12:41:29.954Z,10.40
2023-11-06T12:44:02.145Z,10.32
2023-11-06T12:47:01.039Z,10.26
2023-11-06T12:49:49.744Z,10.23
2023-11-06T12:52:22.884Z,10.38
2023-11-06T12:54:52.488Z,10.51
2023-11-06T12:57:21.646Z,10.49
2023-11-06T12:59:50.651Z,10.37
2023-11-06T13:02:20.464Z,10.33
2023-11-06T13:04:50.886Z,10.43
2023-11-06T13:07:20.331Z,10.45
2023-11-06T13:09:49.774Z,10.53
2023-11-06T13:12:19.390Z,10.58
2023-11-06T13:14:49.668Z,10.43
2023-11-06T13:17:19.975Z,10.56
2023-11-06T13:19:50.315Z,10.45
2023-11-06T13:22:19.762Z,10.53
2023-11-06T13:24:51.316Z,10.59
2023-11-06T13:27:20.087Z,10.60
2023-11-06T13:29:49.255Z,10.62
2023-11-06T13:32:18.468Z,10.48
2023-11-06T13:34:48.154Z,10.54
2023-11-06T13:37:20.030Z,10.81
2023-11-06T13:39:50.755Z,10.87
2023-11-06T13:42:21.147Z,10.84
2023-11-06T13:44:50.356Z,10.75
2023-11-06T13:47:19.297Z,10.73
2023-11-06T13:49:51.104Z,10.71
2023-11-06T13:52:28.584Z,10.82
2023-11-06T13:54:58.038Z,10.91
2023-11-06T13:57:29.032Z,10.85
2023-11-06T13:59:58.463Z,11.03
2023-11-06T14:02:27.814Z,11.14
2023-11-06T14:04:59.337Z,10.89
2023-11-06T14:07:29.568Z,11.08
2023-11-06T14:09:58.484Z,10.95
2023-11-06T14:12:27.332Z,11.20
2023-11-06T14:14:57.269Z,11.17
2023-11-06T14:17:29.175Z,11.12
2023-11-06T14:19:59.004Z,11.11
2023-11-06T14:22:29.272Z,10.57
2023-11-06T14:24:58.732Z,11.12
2023-11-06T14:27:29.553Z,11.20
2023-11-06T14:30:02.631Z,11.11
2023-11-06T14:32:32.001Z,11.23
2023-11-06T14:35:01.949Z,10.84
2023-11-06T14:37:35.381Z,10.82
2023-11-06T14:40:06.638Z,10.82
2023-11-06T14:42:36.079Z,10.71
2023-11-06T14:45:06.003Z,10.89
2023-11-06T14:47:35.423Z,10.82
2023-11-06T14:50:07.827Z,10.78
2023-11-06T14:52:40.993Z,10.69
2023-11-06T14:55:13.613Z,10.67
2023-11-06T14:57:43.403Z,10.82
2023-11-06T15:00:16.888Z,10.58
2023-11-06T15:02:46.891Z,10.66
2023-11-06T15:05:17.995Z,10.81
2023-11-06T15:07:51.368Z,10.62
2023-11-06T15:10:20.052Z,10.63
2023-11-06T15:12:51.734Z,10.49
2023-11-06T15:15:22.757Z,10.42
2023-11-06T15:17:54.094Z,10.57
2023-11-06T15:20:25.279Z,10.43
2023-11-06T15:22:56.495Z,10.34
2023-11-06T15:25:27.392Z,10.36
2023-11-06T15:27:57.945Z,10.28
2023-11-06T15:30:30.751Z,10.39
2023-11-06T15:33:00.316Z,10.39
2023-11-06T15:35:29.724Z,10.31
2023-11-06T15:38:00.815Z,10.28
2023-11-06T15:40:31.949Z,10.33
2023-11-06T15:43:00.835Z,10.31
2023-11-06T15:45:32.952Z,10.27
2023-11-06T15:48:03.406Z,10.44
2023-11-06T15:50:36.528Z,10.40
2023-11-06T15:53:13.234Z,10.37
2023-11-06T15:55:46.265Z,10.25
2023-11-06T15:58:16.318Z,10.30
2023-11-06T16:00:45.606Z,10.31
2023-11-06T16:03:17.642Z,10.16
2023-11-06T16:05:47.267Z,10.08
2023-11-06T16:08:21.483Z,10.20
2023-11-06T16:10:50.624Z,10.09
2023-11-06T16:13:22.363Z,10.08
2023-11-06T16:15:51.920Z,9.92
2023-11-06T16:18:21.835Z,10.02
2023-11-06T16:20:53.439Z,9.96
2023-11-06T16:23:23.993Z,10.11
2023-11-06T16:25:53.817Z,9.97
2023-11-06T16:28:22.788Z,9.95
2023-11-06T16:30:51.597Z,9.89
2023-11-06T16:33:20.961Z,10.00
2023-11-06T16:35:53.486Z,9.93
2023-11-06T16:38:23.815Z,9.91
2023-11-06T16:40:55.696Z,9.89
2023-11-06T16:43:25.238Z,9.95
2023-11-06T16:45:54.465Z,9.93
2023-11-06T16:48:24.423Z,10.11
2023-11-06T16:50:54.626Z,9.93
2023-11-06T16:53:25.246Z,9.95
2023-11-06T16:55:56.295Z,9.96
2023-11-06T16:58:25.944Z,9.81
2023-11-06T17:00:55.482Z,9.89
2023-11-06T17:03:26.183Z,10.01
2023-11-06T17:05:58.070Z,9.92
2023-11-06T17:08:28.455Z,9.92
2023-11-06T17:10:57.553Z,9.72
2023-11-06T17:13:26.648Z,9.86
2023-11-06T17:15:56.292Z,9.09
2023-11-06T17:18:26.367Z,9.37
2023-11-06T17:20:55.625Z,9.72
2023-11-06T17:23:24.543Z,9.79
2023-11-06T17:25:55.198Z,9.67
2023-11-06T17:28:27.963Z,9.67
2023-11-06T17:30:57.664Z,9.70
2023-11-06T17:33:26.732Z,9.58
2023-11-06T17:36:01.499Z,9.48
2023-11-06T17:38:30.625Z,9.72
2023-11-06T17:41:01.336Z,9.60
2023-11-06T17:43:33.185Z,9.74
2023-11-06T17:46:02.714Z,9.69
2023-11-06T17:48:32.869Z,9.71
2023-11-06T17:51:02.593Z,9.73
2023-11-06T17:53:32.024Z,9.54
2023-11-06T17:56:02.654Z,9.56
2023-11-06T17:58:32.022Z,9.79
2023-11-06T18:01:04.889Z,9.64
2023-11-06T18:03:38.873Z,9.64
2023-11-06T18:06:10.010Z,9.75
2023-11-06T18:08:42.426Z,9.55
2023-11-06T18:11:13.636Z,9.49
2023-11-06T18:13:45.087Z,9.43
2023-11-06T18:16:20.558Z,9.54
2023-11-06T18:18:50.038Z,9.43
2023-11-06T18:21:19.270Z,9.38
2023-11-06T18:23:49.146Z,9.58
2023-11-06T18:26:20.624Z,9.42
2023-11-06T18:28:49.594Z,9.53
2023-11-06T18:31:25.902Z,9.41
2023-11-06T18:33:56.040Z,8.97
2023-11-06T18:36:26.543Z,9.54
2023-11-06T18:38:56.269Z,9.44
2023-11-06T18:41:29.419Z,9.23
2023-11-06T18:43:59.012Z,9.26
2023-11-06T18:46:28.516Z,9.29
2023-11-06T18:49:00.573Z,8.92
2023-11-06T18:51:34.367Z,8.91
2023-11-06T18:54:03.822Z,9.30
2023-11-06T18:56:35.479Z,9.31
2023-11-06T18:59:05.938Z,9.21
2023-11-06T19:01:36.723Z,9.23
2023-11-06T19:04:07.283Z,9.17
2023-11-06T19:06:36.439Z,9.11
2023-11-06T19:09:08.132Z,9.21
2023-11-06T19:11:39.370Z,9.10
2023-11-06T19:14:09.091Z,9.29
2023-11-06T19:16:38.339Z,9.25
2023-11-06T19:19:07.666Z,9.33
2023-11-06T19:21:42.070Z,9.18
2023-11-06T19:24:20.541Z,9.37
2023-11-06T19:26:51.940Z,9.22
2023-11-06T19:29:22.933Z,9.30
2023-11-06T19:31:54.442Z,9.22
2023-11-06T19:34:26.334Z,9.20
2023-11-06T19:36:55.797Z,9.10
2023-11-06T19:39:25.105Z,9.47
2023-11-06T19:41:56.501Z,9.45
2023-11-06T19:44:26.024Z,9.31
2023-11-06T19:46:55.395Z,9.06
2023-11-06T19:49:25.107Z,9.29
2023-11-06T19:51:54.851Z,9.32
2023-11-06T19:54:24.423Z,9.28
2023-11-06T19:56:55.208Z,9.15
2023-11-06T19:59:38.627Z,9.34
2023-11-06T20:02:16.705Z,9.26
2023-11-06T20:04:48.277Z,9.12
2023-11-06T20:07:17.898Z,9.25
2023-11-06T20:09:47.258Z,9.21
2023-11-06T20:12:17.868Z,9.05
2023-11-06T20:14:47.065Z,9.17
2023-11-06T20:17:21.583Z,9.11
2023-11-06T20:19:54.747Z,9.19
2023-11-06T20:22:24.348Z,9.11
2023-11-06T20:24:53.724Z,8.99
2023-11-06T20:27:24.441Z,9.06
2023-11-06T20:29:54.529Z,9.04
2023-11-06T20:32:25.463Z,9.05
2023-11-06T20:34:54.978Z,9.01
2023-11-06T20:37:26.371Z,8.98
2023-11-06T20:39:55.637Z,8.95
2023-11-06T20:42:25.979Z,9.02
2023-11-06T20:44:57.562Z,9.16
2023-11-06T20:47:27.656Z,9.38
2023-11-06T20:49:57.604Z,9.16
2023-11-06T20:52:26.960Z,9.26
2023-11-06T20:54:56.654Z,9.02
2023-11-06T20:57:27.692Z,8.89
2023-11-06T20:59:57.150Z,8.94
2023-11-06T21:02:27.235Z,8.90
2023-11-06T21:04:57.545Z,8.38
2023-11-06T21:07:27.354Z,8.89
2023-11-06T21:09:57.924Z,9.03
2023-11-06T21:12:28.613Z,8.98
2023-11-06T21:14:57.878Z,9.05
2023-11-06T21:17:27.565Z,9.13
2023-11-06T21:19:57.002Z,8.96
2023-11-06T21:22:28.839Z,8.96
2023-11-06T21:24:59.614Z,8.80
2023-11-06T21:27:32.935Z,8.79
2023-11-06T21:30:02.591Z,8.71
2023-11-06T21:32:31.879Z,8.71
2023-11-06T21:35:01.790Z,8.64
2023-11-06T21:37:31.091Z,8.66
2023-11-06T21:40:02.249Z,9.12
2023-11-06T21:42:33.615Z,8.76
2023-11-06T21:45:03.340Z,8.76
2023-11-06T21:47:33.041Z,8.86
2023-11-06T21:50:02.844Z,8.89
2023-11-06T21:52:32.243Z,9.06
2023-11-06T21:55:01.998Z,8.96
2023-11-06T21:57:32.825Z,8.93
2023-11-06T22:00:06.642Z,8.84
2023-11-06T22:02:43.946Z,8.77
2023-11-06T22:05:21.786Z,8.78
2023-11-06T22:07:52.041Z,8.73
2023-11-06T22:10:25.430Z,8.78
2023-11-06T22:12:56.647Z,8.61
2023-11-06T22:15:26.184Z,8.58
2023-11-06T22:17:59.755Z,8.02
2023-11-06T22:20:31.612Z,8.52
2023-11-06T22:23:02.320Z,8.48
2023-11-06T22:25:31.858Z,8.67
2023-11-06T22:28:02.633Z,8.12
2023-11-06T22:30:32.540Z,8.55
2023-11-06T22:33:01.856Z,8.22
2023-11-06T22:35:32.023Z,8.58
2023-11-06T22:38:01.815Z,8.36
2023-11-06T22:40:31.588Z,8.47
2023-11-06T22:43:02.674Z,8.61
2023-11-06T22:45:35.380Z,8.42
2023-11-06T22:48:06.914Z,8.04
2023-11-06T22:50:36.795Z,8.09
2023-11-06T22:53:10.542Z,8.56
2023-11-06T22:55:40.166Z,8.49
2023-11-06T22:58:11.325Z,8.58
2023-11-06T23:00:43.876Z,8.62
2023-11-06T23:03:14.908Z,8.68
2023-11-06T23:05:47.096Z,8.58
2023-11-06T23:08:17.560Z,8.45
2023-11-06T23:10:47.584Z,8.47
2023-11-06T23:13:20.748Z,8.45
2023-11-06T23:15:50.579Z,8.30
2023-11-06T23:18:22.451Z,8.56
2023-11-06T23:20:54.311Z,8.64
2023-11-06T23:23:25.593Z,8.61
2023-11-06T23:25:57.095Z,8.07
2023-11-06T23:28:31.776Z,8.47
2023-11-06T23:31:03.238Z,8.53
2023-11-06T23:33:33.612Z,8.55
2023-11-06T23:36:04.369Z,8.34
2023-11-06T23:38:34.793Z,8.40
2023-11-06T23:41:04.962Z,8.34
2023-11-06T23:43:36.655Z,8.51
2023-11-06T23:46:08.399Z,8.48
2023-11-06T23:48:39.739Z,8.35
2023-11-06T23:51:12.399Z,8.51
2023-11-06T23:53:42.610Z,8.40
2023-11-06T23:56:13.253Z,8.38
2023-11-06T23:58:47.236Z,8.36
